sensor_id;sensor_type;location;lat;lon;timestamp;P1;durP1;ratioP1;P2;durP2;ratioP2
68942;SDS011;60852;52.190;4.422;2023-04-25T00:01:20;8.64;;;6.43;;
68942;SDS011;60852;52.190;4.422;2023-04-25T00:03:49;8.60;;;6.39;;
68942;SDS011;60852;52.190;4.422;2023-04-25T00:06:15;7.92;;;5.82;;
68942;SDS011;60852;52.190;4.422;2023-04-25T00:08:41;7.70;;;5.68;;
68942;SDS011;60852;52.190;4.422;2023-04-25T00:11:06;7.34;;;5.41;;
68942;SDS011;60852;52.190;4.422;2023-04-25T00:13:32;7.43;;;5.42;;
68942;SDS011;60852;52.190;4.422;2023-04-25T00:15:57;7.36;;;5.33;;
68942;SDS011;60852;52.190;4.422;2023-04-25T00:18:23;6.96;;;5.16;;
68942;SDS011;60852;52.190;4.422;2023-04-25T00:20:49;7.35;;;5.39;;
68942;SDS011;60852;52.190;4.422;2023-04-25T00:23:15;7.38;;;5.43;;
68942;SDS011;60852;52.190;4.422;2023-04-25T00:25:43;7.88;;;5.68;;
68942;SDS011;60852;52.190;4.422;2023-04-25T00:28:10;7.15;;;5.24;;
68942;SDS011;60852;52.190;4.422;2023-04-25T00:30:36;7.70;;;5.74;;
68942;SDS011;60852;52.190;4.422;2023-04-25T00:33:02;7.48;;;5.61;;
68942;SDS011;60852;52.190;4.422;2023-04-25T00:35:27;7.34;;;5.45;;
68942;SDS011;60852;52.190;4.422;2023-04-25T00:37:53;8.08;;;5.92;;
68942;SDS011;60852;52.190;4.422;2023-04-25T00:40:20;8.17;;;5.98;;
68942;SDS011;60852;52.190;4.422;2023-04-25T00:42:46;7.01;;;5.34;;
68942;SDS011;60852;52.190;4.422;2023-04-25T00:45:13;6.34;;;4.98;;
68942;SDS011;60852;52.190;4.422;2023-04-25T00:47:40;6.02;;;4.74;;
68942;SDS011;60852;52.190;4.422;2023-04-25T00:50:06;6.20;;;5.00;;
68942;SDS011;60852;52.190;4.422;2023-04-25T00:52:33;6.03;;;4.79;;
68942;SDS011;60852;52.190;4.422;2023-04-25T00:54:59;6.12;;;4.85;;
68942;SDS011;60852;52.190;4.422;2023-04-25T00:57:24;5.27;;;4.22;;
68942;SDS011;60852;52.190;4.422;2023-04-25T00:59:51;5.05;;;4.13;;
68942;SDS011;60852;52.190;4.422;2023-04-25T01:02:18;6.02;;;4.74;;
68942;SDS011;60852;52.190;4.422;2023-04-25T01:04:45;6.58;;;4.96;;
68942;SDS011;60852;52.190;4.422;2023-04-25T01:07:12;6.93;;;5.17;;
68942;SDS011;60852;52.190;4.422;2023-04-25T01:09:38;7.06;;;5.25;;
68942;SDS011;60852;52.190;4.422;2023-04-25T01:12:04;7.13;;;5.18;;
68942;SDS011;60852;52.190;4.422;2023-04-25T01:14:30;6.58;;;4.76;;
68942;SDS011;60852;52.190;4.422;2023-04-25T01:16:55;7.31;;;5.27;;
68942;SDS011;60852;52.190;4.422;2023-04-25T01:19:22;6.95;;;5.08;;
68942;SDS011;60852;52.190;4.422;2023-04-25T01:21:49;6.65;;;4.86;;
68942;SDS011;60852;52.190;4.422;2023-04-25T01:24:15;7.10;;;5.12;;
68942;SDS011;60852;52.190;4.422;2023-04-25T01:26:41;6.24;;;4.66;;
68942;SDS011;60852;52.190;4.422;2023-04-25T01:29:15;6.48;;;4.87;;
68942;SDS011;60852;52.190;4.422;2023-04-25T01:31:41;6.77;;;4.99;;
68942;SDS011;60852;52.190;4.422;2023-04-25T01:34:10;6.16;;;4.60;;
68942;SDS011;60852;52.190;4.422;2023-04-25T01:36:35;7.06;;;5.12;;
68942;SDS011;60852;52.190;4.422;2023-04-25T01:39:01;7.06;;;5.06;;
68942;SDS011;60852;52.190;4.422;2023-04-25T01:41:27;6.93;;;4.96;;
68942;SDS011;60852;52.190;4.422;2023-04-25T01:43:53;6.77;;;4.90;;
68942;SDS011;60852;52.190;4.422;2023-04-25T01:46:19;7.31;;;5.21;;
68942;SDS011;60852;52.190;4.422;2023-04-25T01:48:44;7.67;;;5.48;;
68942;SDS011;60852;52.190;4.422;2023-04-25T01:51:10;7.22;;;5.10;;
68942;SDS011;60852;52.190;4.422;2023-04-25T01:53:36;8.06;;;5.63;;
68942;SDS011;60852;52.190;4.422;2023-04-25T01:56:03;8.19;;;5.60;;
68942;SDS011;60852;52.190;4.422;2023-04-25T01:58:29;6.25;;;4.43;;
68942;SDS011;60852;52.190;4.422;2023-04-25T02:00:54;5.61;;;4.18;;
68942;SDS011;60852;52.190;4.422;2023-04-25T02:03:20;5.82;;;4.18;;
68942;SDS011;60852;52.190;4.422;2023-04-25T02:05:45;5.81;;;4.10;;
68942;SDS011;60852;52.190;4.422;2023-04-25T02:08:10;6.06;;;4.24;;
68942;SDS011;60852;52.190;4.422;2023-04-25T02:10:36;5.56;;;4.03;;
68942;SDS011;60852;52.190;4.422;2023-04-25T02:13:02;5.37;;;3.92;;
68942;SDS011;60852;52.190;4.422;2023-04-25T02:15:29;5.53;;;3.99;;
68942;SDS011;60852;52.190;4.422;2023-04-25T02:17:54;5.79;;;4.08;;
68942;SDS011;60852;52.190;4.422;2023-04-25T02:20:20;5.73;;;4.00;;
68942;SDS011;60852;52.190;4.422;2023-04-25T02:22:47;6.02;;;4.25;;
68942;SDS011;60852;52.190;4.422;2023-04-25T02:25:13;6.43;;;4.55;;
68942;SDS011;60852;52.190;4.422;2023-04-25T02:27:38;6.42;;;4.44;;
68942;SDS011;60852;52.190;4.422;2023-04-25T02:30:04;6.04;;;4.13;;
68942;SDS011;60852;52.190;4.422;2023-04-25T02:32:31;6.27;;;4.28;;
68942;SDS011;60852;52.190;4.422;2023-04-25T02:34:59;6.42;;;4.40;;
68942;SDS011;60852;52.190;4.422;2023-04-25T02:37:29;6.71;;;4.55;;
68942;SDS011;60852;52.190;4.422;2023-04-25T02:39:55;6.16;;;4.25;;
68942;SDS011;60852;52.190;4.422;2023-04-25T02:42:21;5.96;;;4.16;;
68942;SDS011;60852;52.190;4.422;2023-04-25T02:44:46;6.60;;;4.56;;
68942;SDS011;60852;52.190;4.422;2023-04-25T02:47:11;6.40;;;4.37;;
68942;SDS011;60852;52.190;4.422;2023-04-25T02:49:37;7.06;;;4.75;;
68942;SDS011;60852;52.190;4.422;2023-04-25T02:52:02;7.36;;;4.86;;
68942;SDS011;60852;52.190;4.422;2023-04-25T02:54:28;7.92;;;5.25;;
68942;SDS011;60852;52.190;4.422;2023-04-25T02:56:53;6.83;;;4.58;;
68942;SDS011;60852;52.190;4.422;2023-04-25T02:59:19;8.53;;;5.61;;
68942;SDS011;60852;52.190;4.422;2023-04-25T03:01:44;9.48;;;6.29;;
68942;SDS011;60852;52.190;4.422;2023-04-25T03:04:10;8.93;;;5.89;;
68942;SDS011;60852;52.190;4.422;2023-04-25T03:06:35;7.74;;;5.26;;
68942;SDS011;60852;52.190;4.422;2023-04-25T03:09:01;6.85;;;4.66;;
68942;SDS011;60852;52.190;4.422;2023-04-25T03:11:26;6.02;;;4.08;;
68942;SDS011;60852;52.190;4.422;2023-04-25T03:13:52;6.15;;;4.18;;
68942;SDS011;60852;52.190;4.422;2023-04-25T03:16:17;6.13;;;4.18;;
68942;SDS011;60852;52.190;4.422;2023-04-25T03:18:43;5.78;;;3.98;;
68942;SDS011;60852;52.190;4.422;2023-04-25T03:21:08;6.40;;;4.39;;
68942;SDS011;60852;52.190;4.422;2023-04-25T03:23:34;6.97;;;4.79;;
68942;SDS011;60852;52.190;4.422;2023-04-25T03:25:59;7.11;;;4.99;;
68942;SDS011;60852;52.190;4.422;2023-04-25T03:28:25;5.78;;;4.06;;
68942;SDS011;60852;52.190;4.422;2023-04-25T03:30:50;5.24;;;3.68;;
68942;SDS011;60852;52.190;4.422;2023-04-25T03:33:15;5.95;;;4.18;;
68942;SDS011;60852;52.190;4.422;2023-04-25T03:35:41;5.95;;;4.24;;
68942;SDS011;60852;52.190;4.422;2023-04-25T03:38:07;6.39;;;4.44;;
68942;SDS011;60852;52.190;4.422;2023-04-25T03:40:33;6.94;;;4.77;;
68942;SDS011;60852;52.190;4.422;2023-04-25T03:42:58;7.18;;;4.95;;
68942;SDS011;60852;52.190;4.422;2023-04-25T03:45:24;6.40;;;4.50;;
68942;SDS011;60852;52.190;4.422;2023-04-25T03:47:49;7.01;;;4.99;;
68942;SDS011;60852;52.190;4.422;2023-04-25T03:50:15;5.88;;;4.15;;
68942;SDS011;60852;52.190;4.422;2023-04-25T03:52:40;5.73;;;4.01;;
68942;SDS011;60852;52.190;4.422;2023-04-25T03:55:06;6.38;;;4.44;;
68942;SDS011;60852;52.190;4.422;2023-04-25T03:57:32;6.64;;;4.65;;
68942;SDS011;60852;52.190;4.422;2023-04-25T03:59:57;6.03;;;4.31;;
68942;SDS011;60852;52.190;4.422;2023-04-25T04:02:23;5.94;;;4.23;;
68942;SDS011;60852;52.190;4.422;2023-04-25T04:04:48;6.54;;;4.61;;
68942;SDS011;60852;52.190;4.422;2023-04-25T04:07:14;6.32;;;4.47;;
68942;SDS011;60852;52.190;4.422;2023-04-25T04:09:39;7.14;;;4.96;;
68942;SDS011;60852;52.190;4.422;2023-04-25T04:12:05;6.80;;;4.67;;
68942;SDS011;60852;52.190;4.422;2023-04-25T04:14:30;6.97;;;4.83;;
68942;SDS011;60852;52.190;4.422;2023-04-25T04:16:56;7.54;;;5.23;;
68942;SDS011;60852;52.190;4.422;2023-04-25T04:19:21;6.92;;;4.83;;
68942;SDS011;60852;52.190;4.422;2023-04-25T04:21:46;7.08;;;4.98;;
68942;SDS011;60852;52.190;4.422;2023-04-25T04:24:12;7.71;;;5.35;;
68942;SDS011;60852;52.190;4.422;2023-04-25T04:26:37;7.09;;;4.91;;
68942;SDS011;60852;52.190;4.422;2023-04-25T04:29:03;7.40;;;5.11;;
68942;SDS011;60852;52.190;4.422;2023-04-25T04:31:29;7.21;;;4.95;;
68942;SDS011;60852;52.190;4.422;2023-04-25T04:33:55;7.64;;;5.38;;
68942;SDS011;60852;52.190;4.422;2023-04-25T04:36:20;6.52;;;4.76;;
68942;SDS011;60852;52.190;4.422;2023-04-25T04:38:48;5.63;;;4.21;;
68942;SDS011;60852;52.190;4.422;2023-04-25T04:41:13;4.25;;;3.23;;
68942;SDS011;60852;52.190;4.422;2023-04-25T04:43:39;4.07;;;3.13;;
68942;SDS011;60852;52.190;4.422;2023-04-25T04:46:05;4.54;;;3.39;;
68942;SDS011;60852;52.190;4.422;2023-04-25T04:48:31;4.84;;;3.55;;
68942;SDS011;60852;52.190;4.422;2023-04-25T04:51:00;4.63;;;3.39;;
68942;SDS011;60852;52.190;4.422;2023-04-25T04:53:26;4.76;;;3.44;;
68942;SDS011;60852;52.190;4.422;2023-04-25T04:55:51;4.17;;;3.00;;
68942;SDS011;60852;52.190;4.422;2023-04-25T04:58:17;4.20;;;3.01;;
68942;SDS011;60852;52.190;4.422;2023-04-25T05:00:44;4.45;;;3.13;;
68942;SDS011;60852;52.190;4.422;2023-04-25T05:03:10;4.51;;;3.17;;
68942;SDS011;60852;52.190;4.422;2023-04-25T05:05:36;4.72;;;3.43;;
68942;SDS011;60852;52.190;4.422;2023-04-25T05:08:05;4.23;;;3.01;;
68942;SDS011;60852;52.190;4.422;2023-04-25T05:10:31;4.14;;;2.99;;
68942;SDS011;60852;52.190;4.422;2023-04-25T05:12:56;3.69;;;2.73;;
68942;SDS011;60852;52.190;4.422;2023-04-25T05:15:22;3.27;;;2.51;;
68942;SDS011;60852;52.190;4.422;2023-04-25T05:17:47;2.82;;;2.24;;
68942;SDS011;60852;52.190;4.422;2023-04-25T05:20:13;2.60;;;2.12;;
68942;SDS011;60852;52.190;4.422;2023-04-25T05:22:39;3.30;;;2.68;;
68942;SDS011;60852;52.190;4.422;2023-04-25T05:25:06;2.96;;;2.39;;
68942;SDS011;60852;52.190;4.422;2023-04-25T05:27:33;2.94;;;2.40;;
68942;SDS011;60852;52.190;4.422;2023-04-25T05:29:58;2.65;;;2.16;;
68942;SDS011;60852;52.190;4.422;2023-04-25T05:32:24;3.31;;;2.69;;
68942;SDS011;60852;52.190;4.422;2023-04-25T05:34:50;3.49;;;2.82;;
68942;SDS011;60852;52.190;4.422;2023-04-25T05:37:16;3.09;;;2.53;;
68942;SDS011;60852;52.190;4.422;2023-04-25T05:39:42;3.03;;;2.46;;
68942;SDS011;60852;52.190;4.422;2023-04-25T05:42:07;3.10;;;2.59;;
68942;SDS011;60852;52.190;4.422;2023-04-25T05:44:33;2.64;;;2.24;;
68942;SDS011;60852;52.190;4.422;2023-04-25T05:46:58;3.01;;;2.53;;
68942;SDS011;60852;52.190;4.422;2023-04-25T05:49:24;4.07;;;3.52;;
68942;SDS011;60852;52.190;4.422;2023-04-25T05:51:49;5.06;;;4.77;;
68942;SDS011;60852;52.190;4.422;2023-04-25T05:54:15;3.31;;;3.11;;
68942;SDS011;60852;52.190;4.422;2023-04-25T05:56:40;3.44;;;3.13;;
68942;SDS011;60852;52.190;4.422;2023-04-25T05:59:06;3.45;;;3.00;;
68942;SDS011;60852;52.190;4.422;2023-04-25T06:01:31;3.65;;;3.10;;
68942;SDS011;60852;52.190;4.422;2023-04-25T06:03:57;3.94;;;3.30;;
68942;SDS011;60852;52.190;4.422;2023-04-25T06:06:22;4.02;;;3.48;;
68942;SDS011;60852;52.190;4.422;2023-04-25T06:08:48;3.60;;;3.06;;
68942;SDS011;60852;52.190;4.422;2023-04-25T06:11:13;3.79;;;3.00;;
68942;SDS011;60852;52.190;4.422;2023-04-25T06:13:38;4.21;;;3.16;;
68942;SDS011;60852;52.190;4.422;2023-04-25T06:16:04;5.37;;;3.94;;
68942;SDS011;60852;52.190;4.422;2023-04-25T06:18:30;4.39;;;3.33;;
68942;SDS011;60852;52.190;4.422;2023-04-25T06:20:55;4.44;;;3.23;;
68942;SDS011;60852;52.190;4.422;2023-04-25T06:23:21;4.23;;;3.05;;
68942;SDS011;60852;52.190;4.422;2023-04-25T06:25:46;4.64;;;3.30;;
68942;SDS011;60852;52.190;4.422;2023-04-25T06:28:12;4.57;;;3.13;;
68942;SDS011;60852;52.190;4.422;2023-04-25T06:30:37;5.60;;;3.76;;
68942;SDS011;60852;52.190;4.422;2023-04-25T06:33:03;5.63;;;3.81;;
68942;SDS011;60852;52.190;4.422;2023-04-25T06:35:28;4.49;;;3.09;;
68942;SDS011;60852;52.190;4.422;2023-04-25T06:37:53;5.23;;;3.57;;
68942;SDS011;60852;52.190;4.422;2023-04-25T06:40:19;5.95;;;3.94;;
68942;SDS011;60852;52.190;4.422;2023-04-25T06:42:44;5.30;;;3.46;;
68942;SDS011;60852;52.190;4.422;2023-04-25T06:45:10;5.95;;;3.88;;
68942;SDS011;60852;52.190;4.422;2023-04-25T06:47:35;6.29;;;4.14;;
68942;SDS011;60852;52.190;4.422;2023-04-25T06:50:01;5.67;;;3.78;;
68942;SDS011;60852;52.190;4.422;2023-04-25T06:52:26;5.66;;;3.76;;
68942;SDS011;60852;52.190;4.422;2023-04-25T06:54:52;4.87;;;3.25;;
68942;SDS011;60852;52.190;4.422;2023-04-25T06:57:17;5.32;;;3.51;;
68942;SDS011;60852;52.190;4.422;2023-04-25T06:59:43;5.73;;;3.77;;
68942;SDS011;60852;52.190;4.422;2023-04-25T07:02:08;4.87;;;3.32;;
68942;SDS011;60852;52.190;4.422;2023-04-25T07:04:33;4.01;;;2.78;;
68942;SDS011;60852;52.190;4.422;2023-04-25T07:06:59;4.11;;;2.83;;
68942;SDS011;60852;52.190;4.422;2023-04-25T07:09:27;4.31;;;2.97;;
68942;SDS011;60852;52.190;4.422;2023-04-25T07:11:53;4.12;;;2.81;;
68942;SDS011;60852;52.190;4.422;2023-04-25T07:14:18;3.96;;;2.77;;
68942;SDS011;60852;52.190;4.422;2023-04-25T07:16:44;4.00;;;2.76;;
68942;SDS011;60852;52.190;4.422;2023-04-25T07:19:09;4.68;;;3.24;;
68942;SDS011;60852;52.190;4.422;2023-04-25T07:21:35;4.33;;;2.99;;
68942;SDS011;60852;52.190;4.422;2023-04-25T07:24:01;4.79;;;3.35;;
68942;SDS011;60852;52.190;4.422;2023-04-25T07:26:27;5.36;;;3.73;;
68942;SDS011;60852;52.190;4.422;2023-04-25T07:28:52;4.49;;;3.13;;
68942;SDS011;60852;52.190;4.422;2023-04-25T07:31:19;4.86;;;3.32;;
68942;SDS011;60852;52.190;4.422;2023-04-25T07:33:45;5.41;;;3.64;;
68942;SDS011;60852;52.190;4.422;2023-04-25T07:36:11;5.78;;;3.81;;
68942;SDS011;60852;52.190;4.422;2023-04-25T07:38:37;5.78;;;3.84;;
68942;SDS011;60852;52.190;4.422;2023-04-25T07:41:03;5.77;;;3.87;;
68942;SDS011;60852;52.190;4.422;2023-04-25T07:43:29;5.18;;;3.49;;
68942;SDS011;60852;52.190;4.422;2023-04-25T07:45:54;4.79;;;3.29;;
68942;SDS011;60852;52.190;4.422;2023-04-25T07:48:21;5.52;;;3.67;;
68942;SDS011;60852;52.190;4.422;2023-04-25T07:50:46;4.84;;;3.22;;
68942;SDS011;60852;52.190;4.422;2023-04-25T07:53:12;5.49;;;3.69;;
68942;SDS011;60852;52.190;4.422;2023-04-25T07:55:38;4.95;;;3.29;;
68942;SDS011;60852;52.190;4.422;2023-04-25T07:58:07;4.96;;;3.28;;
68942;SDS011;60852;52.190;4.422;2023-04-25T08:00:34;5.25;;;3.49;;
68942;SDS011;60852;52.190;4.422;2023-04-25T08:02:59;5.13;;;3.44;;
68942;SDS011;60852;52.190;4.422;2023-04-25T08:05:25;4.34;;;2.92;;
68942;SDS011;60852;52.190;4.422;2023-04-25T08:07:50;4.53;;;3.08;;
68942;SDS011;60852;52.190;4.422;2023-04-25T08:10:16;4.31;;;2.95;;
68942;SDS011;60852;52.190;4.422;2023-04-25T08:12:41;3.50;;;2.43;;
68942;SDS011;60852;52.190;4.422;2023-04-25T08:15:07;3.80;;;2.69;;
68942;SDS011;60852;52.190;4.422;2023-04-25T08:17:33;3.63;;;2.57;;
68942;SDS011;60852;52.190;4.422;2023-04-25T08:19:58;3.29;;;2.35;;
68942;SDS011;60852;52.190;4.422;2023-04-25T08:22:24;3.30;;;2.33;;
68942;SDS011;60852;52.190;4.422;2023-04-25T08:24:49;3.21;;;2.26;;
68942;SDS011;60852;52.190;4.422;2023-04-25T08:27:14;3.36;;;2.39;;
68942;SDS011;60852;52.190;4.422;2023-04-25T08:29:41;3.49;;;2.45;;
68942;SDS011;60852;52.190;4.422;2023-04-25T08:32:07;4.04;;;2.79;;
68942;SDS011;60852;52.190;4.422;2023-04-25T08:34:32;3.41;;;2.35;;
68942;SDS011;60852;52.190;4.422;2023-04-25T08:36:57;3.64;;;2.56;;
68942;SDS011;60852;52.190;4.422;2023-04-25T08:39:23;3.43;;;2.43;;
68942;SDS011;60852;52.190;4.422;2023-04-25T08:41:48;3.58;;;2.52;;
68942;SDS011;60852;52.190;4.422;2023-04-25T08:44:14;3.49;;;2.40;;
68942;SDS011;60852;52.190;4.422;2023-04-25T08:46:41;3.46;;;2.34;;
68942;SDS011;60852;52.190;4.422;2023-04-25T08:49:07;3.97;;;2.67;;
68942;SDS011;60852;52.190;4.422;2023-04-25T08:51:34;3.93;;;2.65;;
68942;SDS011;60852;52.190;4.422;2023-04-25T08:54:11;4.23;;;2.85;;
68942;SDS011;60852;52.190;4.422;2023-04-25T08:56:43;4.25;;;2.81;;
68942;SDS011;60852;52.190;4.422;2023-04-25T08:59:10;5.05;;;3.49;;
68942;SDS011;60852;52.190;4.422;2023-04-25T09:01:37;3.69;;;2.56;;
68942;SDS011;60852;52.190;4.422;2023-04-25T09:04:02;4.22;;;2.85;;
68942;SDS011;60852;52.190;4.422;2023-04-25T09:06:28;4.70;;;3.14;;
68942;SDS011;60852;52.190;4.422;2023-04-25T09:09:05;4.39;;;2.91;;
68942;SDS011;60852;52.190;4.422;2023-04-25T09:11:33;5.08;;;3.33;;
68942;SDS011;60852;52.190;4.422;2023-04-25T09:14:20;5.82;;;3.80;;
68942;SDS011;60852;52.190;4.422;2023-04-25T09:19:25;4.50;;;2.99;;
68942;SDS011;60852;52.190;4.422;2023-04-25T09:21:54;5.31;;;3.50;;
68942;SDS011;60852;52.190;4.422;2023-04-25T09:27:10;4.87;;;3.15;;
68942;SDS011;60852;52.190;4.422;2023-04-25T09:29:38;5.91;;;3.83;;
68942;SDS011;60852;52.190;4.422;2023-04-25T09:34:44;5.57;;;3.60;;
68942;SDS011;60852;52.190;4.422;2023-04-25T09:37:16;5.49;;;3.54;;
68942;SDS011;60852;52.190;4.422;2023-04-25T09:39:46;6.02;;;3.86;;
68942;SDS011;60852;52.190;4.422;2023-04-25T09:42:13;5.97;;;3.81;;
68942;SDS011;60852;52.190;4.422;2023-04-25T09:44:42;6.25;;;3.99;;
68942;SDS011;60852;52.190;4.422;2023-04-25T09:47:12;5.76;;;3.70;;
68942;SDS011;60852;52.190;4.422;2023-04-25T09:49:40;5.04;;;3.27;;
68942;SDS011;60852;52.190;4.422;2023-04-25T09:52:08;4.84;;;3.16;;
68942;SDS011;60852;52.190;4.422;2023-04-25T09:54:38;5.78;;;3.76;;
68942;SDS011;60852;52.190;4.422;2023-04-25T09:57:08;5.20;;;3.41;;
68942;SDS011;60852;52.190;4.422;2023-04-25T09:59:42;5.76;;;3.81;;
68942;SDS011;60852;52.190;4.422;2023-04-25T10:02:09;4.50;;;3.00;;
68942;SDS011;60852;52.190;4.422;2023-04-25T10:04:36;4.47;;;3.03;;
68942;SDS011;60852;52.190;4.422;2023-04-25T10:07:05;4.46;;;3.04;;
68942;SDS011;60852;52.190;4.422;2023-04-25T10:09:32;4.32;;;2.97;;
68942;SDS011;60852;52.190;4.422;2023-04-25T10:12:02;4.59;;;3.14;;
68942;SDS011;60852;52.190;4.422;2023-04-25T10:14:31;4.74;;;3.23;;
68942;SDS011;60852;52.190;4.422;2023-04-25T10:16:58;4.24;;;2.91;;
68942;SDS011;60852;52.190;4.422;2023-04-25T10:19:24;4.10;;;2.88;;
68942;SDS011;60852;52.190;4.422;2023-04-25T10:21:56;4.84;;;3.58;;
68942;SDS011;60852;52.190;4.422;2023-04-25T10:24:36;3.09;;;2.26;;
68942;SDS011;60852;52.190;4.422;2023-04-25T10:27:04;3.46;;;2.50;;
68942;SDS011;60852;52.190;4.422;2023-04-25T10:29:31;3.24;;;2.35;;
68942;SDS011;60852;52.190;4.422;2023-04-25T10:31:57;3.81;;;2.73;;
68942;SDS011;60852;52.190;4.422;2023-04-25T10:34:41;3.81;;;2.76;;
68942;SDS011;60852;52.190;4.422;2023-04-25T10:37:11;5.86;;;4.29;;
68942;SDS011;60852;52.190;4.422;2023-04-25T10:39:40;3.81;;;2.83;;
68942;SDS011;60852;52.190;4.422;2023-04-25T10:42:07;5.00;;;3.87;;
68942;SDS011;60852;52.190;4.422;2023-04-25T10:44:33;3.03;;;2.44;;
68942;SDS011;60852;52.190;4.422;2023-04-25T10:47:01;3.24;;;2.50;;
68942;SDS011;60852;52.190;4.422;2023-04-25T10:49:31;3.26;;;2.49;;
68942;SDS011;60852;52.190;4.422;2023-04-25T10:54:56;3.61;;;2.66;;
68942;SDS011;60852;52.190;4.422;2023-04-25T10:57:35;3.78;;;2.74;;
68942;SDS011;60852;52.190;4.422;2023-04-25T11:02:42;4.22;;;3.00;;
68942;SDS011;60852;52.190;4.422;2023-04-25T11:05:10;4.19;;;3.03;;
68942;SDS011;60852;52.190;4.422;2023-04-25T11:07:54;3.98;;;2.89;;
68942;SDS011;60852;52.190;4.422;2023-04-25T11:10:26;4.03;;;2.92;;
68942;SDS011;60852;52.190;4.422;2023-04-25T11:12:52;4.15;;;3.02;;
68942;SDS011;60852;52.190;4.422;2023-04-25T11:15:18;4.06;;;2.94;;
68942;SDS011;60852;52.190;4.422;2023-04-25T11:17:43;3.81;;;2.76;;
68942;SDS011;60852;52.190;4.422;2023-04-25T11:20:11;3.68;;;2.66;;
68942;SDS011;60852;52.190;4.422;2023-04-25T11:22:39;3.89;;;2.77;;
68942;SDS011;60852;52.190;4.422;2023-04-25T11:25:09;3.96;;;2.85;;
68942;SDS011;60852;52.190;4.422;2023-04-25T11:28:20;3.74;;;2.67;;
68942;SDS011;60852;52.190;4.422;2023-04-25T11:30:26;3.90;;;2.85;;
68942;SDS011;60852;52.190;4.422;2023-04-25T11:32:53;3.32;;;2.47;;
68942;SDS011;60852;52.190;4.422;2023-04-25T11:35:19;2.84;;;2.07;;
68942;SDS011;60852;52.190;4.422;2023-04-25T11:37:47;3.17;;;2.26;;
68942;SDS011;60852;52.190;4.422;2023-04-25T11:40:13;3.63;;;2.62;;
68942;SDS011;60852;52.190;4.422;2023-04-25T11:42:42;3.45;;;2.50;;
68942;SDS011;60852;52.190;4.422;2023-04-25T11:45:09;5.13;;;3.85;;
68942;SDS011;60852;52.190;4.422;2023-04-25T11:47:35;3.09;;;2.39;;
68942;SDS011;60852;52.190;4.422;2023-04-25T11:50:01;3.71;;;2.81;;
68942;SDS011;60852;52.190;4.422;2023-04-25T11:52:36;3.98;;;2.93;;
68942;SDS011;60852;52.190;4.422;2023-04-25T11:55:08;3.71;;;2.71;;
68942;SDS011;60852;52.190;4.422;2023-04-25T11:57:40;3.24;;;2.37;;
68942;SDS011;60852;52.190;4.422;2023-04-25T12:00:17;3.20;;;2.31;;
68942;SDS011;60852;52.190;4.422;2023-04-25T12:02:55;3.82;;;2.70;;
68942;SDS011;60852;52.190;4.422;2023-04-25T12:05:24;3.87;;;2.75;;
68942;SDS011;60852;52.190;4.422;2023-04-25T12:07:51;3.99;;;2.82;;
68942;SDS011;60852;52.190;4.422;2023-04-25T12:10:17;4.34;;;3.08;;
68942;SDS011;60852;52.190;4.422;2023-04-25T12:12:47;4.65;;;3.27;;
68942;SDS011;60852;52.190;4.422;2023-04-25T12:15:14;4.22;;;2.97;;
68942;SDS011;60852;52.190;4.422;2023-04-25T12:17:44;4.34;;;3.01;;
68942;SDS011;60852;52.190;4.422;2023-04-25T12:20:14;3.87;;;2.68;;
68942;SDS011;60852;52.190;4.422;2023-04-25T12:22:42;4.39;;;3.14;;
68942;SDS011;60852;52.190;4.422;2023-04-25T12:25:10;3.60;;;2.63;;
68942;SDS011;60852;52.190;4.422;2023-04-25T12:28:45;3.05;;;2.31;;
68942;SDS011;60852;52.190;4.422;2023-04-25T12:33:21;3.77;;;2.84;;
68942;SDS011;60852;52.190;4.422;2023-04-25T12:35:47;4.12;;;3.05;;
68942;SDS011;60852;52.190;4.422;2023-04-25T12:38:29;3.86;;;2.85;;
68942;SDS011;60852;52.190;4.422;2023-04-25T12:40:57;4.21;;;3.08;;
68942;SDS011;60852;52.190;4.422;2023-04-25T12:43:23;3.91;;;2.85;;
68942;SDS011;60852;52.190;4.422;2023-04-25T12:45:50;4.65;;;3.39;;
68942;SDS011;60852;52.190;4.422;2023-04-25T12:48:17;4.16;;;3.03;;
68942;SDS011;60852;52.190;4.422;2023-04-25T12:50:43;4.27;;;3.11;;
68942;SDS011;60852;52.190;4.422;2023-04-25T12:53:08;4.25;;;3.08;;
68942;SDS011;60852;52.190;4.422;2023-04-25T12:55:34;5.14;;;3.64;;
68942;SDS011;60852;52.190;4.422;2023-04-25T12:58:00;4.39;;;3.12;;
68942;SDS011;60852;52.190;4.422;2023-04-25T13:00:26;4.44;;;3.21;;
68942;SDS011;60852;52.190;4.422;2023-04-25T13:02:51;5.21;;;3.82;;
68942;SDS011;60852;52.190;4.422;2023-04-25T13:05:17;4.27;;;3.24;;
68942;SDS011;60852;52.190;4.422;2023-04-25T13:07:42;3.89;;;2.97;;
68942;SDS011;60852;52.190;4.422;2023-04-25T13:10:08;3.57;;;2.72;;
68942;SDS011;60852;52.190;4.422;2023-04-25T13:12:33;3.80;;;2.77;;
68942;SDS011;60852;52.190;4.422;2023-04-25T13:14:59;4.80;;;3.39;;
68942;SDS011;60852;52.190;4.422;2023-04-25T13:17:24;4.63;;;3.36;;
68942;SDS011;60852;52.190;4.422;2023-04-25T13:19:50;3.73;;;2.79;;
68942;SDS011;60852;52.190;4.422;2023-04-25T13:22:15;3.79;;;2.83;;
68942;SDS011;60852;52.190;4.422;2023-04-25T13:24:42;3.57;;;2.73;;
68942;SDS011;60852;52.190;4.422;2023-04-25T13:27:08;3.23;;;2.55;;
68942;SDS011;60852;52.190;4.422;2023-04-25T13:29:33;2.97;;;2.38;;
68942;SDS011;60852;52.190;4.422;2023-04-25T13:32:00;2.85;;;2.28;;
68942;SDS011;60852;52.190;4.422;2023-04-25T13:34:27;3.05;;;2.43;;
68942;SDS011;60852;52.190;4.422;2023-04-25T13:36:54;2.89;;;2.26;;
68942;SDS011;60852;52.190;4.422;2023-04-25T13:39:19;3.48;;;2.68;;
68942;SDS011;60852;52.190;4.422;2023-04-25T13:41:45;3.29;;;2.52;;
68942;SDS011;60852;52.190;4.422;2023-04-25T13:44:10;3.84;;;2.88;;
68942;SDS011;60852;52.190;4.422;2023-04-25T13:46:36;3.99;;;3.02;;
68942;SDS011;60852;52.190;4.422;2023-04-25T13:49:02;4.20;;;3.26;;
68942;SDS011;60852;52.190;4.422;2023-04-25T13:51:28;3.83;;;2.98;;
68942;SDS011;60852;52.190;4.422;2023-04-25T13:53:53;3.68;;;2.84;;
68942;SDS011;60852;52.190;4.422;2023-04-25T13:56:19;3.82;;;2.95;;
68942;SDS011;60852;52.190;4.422;2023-04-25T13:58:45;3.97;;;3.01;;
68942;SDS011;60852;52.190;4.422;2023-04-25T14:01:11;4.19;;;3.21;;
68942;SDS011;60852;52.190;4.422;2023-04-25T14:03:36;3.81;;;2.94;;
68942;SDS011;60852;52.190;4.422;2023-04-25T14:06:02;3.60;;;2.85;;
68942;SDS011;60852;52.190;4.422;2023-04-25T14:08:28;3.45;;;2.74;;
68942;SDS011;60852;52.190;4.422;2023-04-25T14:10:54;3.24;;;2.55;;
68942;SDS011;60852;52.190;4.422;2023-04-25T14:13:19;4.16;;;3.25;;
68942;SDS011;60852;52.190;4.422;2023-04-25T14:15:45;3.96;;;3.05;;
68942;SDS011;60852;52.190;4.422;2023-04-25T14:18:11;4.84;;;3.68;;
68942;SDS011;60852;52.190;4.422;2023-04-25T14:20:36;4.88;;;3.70;;
68942;SDS011;60852;52.190;4.422;2023-04-25T14:23:01;5.13;;;4.02;;
68942;SDS011;60852;52.190;4.422;2023-04-25T14:25:28;3.69;;;2.98;;
68942;SDS011;60852;52.190;4.422;2023-04-25T14:27:55;3.75;;;3.04;;
68942;SDS011;60852;52.190;4.422;2023-04-25T14:30:20;3.84;;;3.05;;
68942;SDS011;60852;52.190;4.422;2023-04-25T14:32:47;6.13;;;5.01;;
68942;SDS011;60852;52.190;4.422;2023-04-25T14:35:14;3.57;;;2.97;;
68942;SDS011;60852;52.190;4.422;2023-04-25T14:37:40;3.28;;;2.76;;
68942;SDS011;60852;52.190;4.422;2023-04-25T14:40:05;2.92;;;2.50;;
68942;SDS011;60852;52.190;4.422;2023-04-25T14:42:33;3.00;;;2.61;;
68942;SDS011;60852;52.190;4.422;2023-04-25T14:44:59;2.94;;;2.52;;
68942;SDS011;60852;52.190;4.422;2023-04-25T14:47:24;3.35;;;2.79;;
68942;SDS011;60852;52.190;4.422;2023-04-25T14:49:50;3.39;;;2.76;;
68942;SDS011;60852;52.190;4.422;2023-04-25T14:52:19;3.23;;;2.59;;
68942;SDS011;60852;52.190;4.422;2023-04-25T14:54:46;4.13;;;3.38;;
68942;SDS011;60852;52.190;4.422;2023-04-25T14:57:11;3.73;;;3.08;;
68942;SDS011;60852;52.190;4.422;2023-04-25T14:59:37;3.62;;;2.99;;
68942;SDS011;60852;52.190;4.422;2023-04-25T15:02:02;3.28;;;2.72;;